createdAt,value
2023-02-05T00:04:08.073Z,-5.90
2023-02-05T00:06:35.215Z,-5.90
2023-02-05T00:09:02.331Z,-5.80
2023-02-05T00:11:30.476Z,-5.80
2023-02-05T00:13:57.493Z,-5.80
2023-02-05T00:16:25.471Z,-5.80
2023-02-05T00:18:53.616Z,-5.80
2023-02-05T00:21:22.494Z,-5.70
2023-02-05T00:23:49.809Z,-5.70
2023-02-05T00:26:18.038Z,-5.70
2023-02-05T00:28:46.514Z,-5.70
2023-02-05T00:31:16.544Z,-5.80
2023-02-05T00:33:44.776Z,-5.80
2023-02-05T00:36:13.037Z,-5.80
2023-02-05T00:38:42.962Z,-5.80
2023-02-05T00:41:11.104Z,-5.90
2023-02-05T00:43:39.999Z,-5.90
2023-02-05T00:46:08.539Z,-5.90
2023-02-05T00:48:37.445Z,-6.00
2023-02-05T00:51:05.562Z,-6.00
2023-02-05T00:53:33.100Z,-6.10
2023-02-05T00:56:00.230Z,-6.20
2023-02-05T00:58:27.696Z,-6.20
2023-02-05T01:00:57.770Z,-6.30
2023-02-05T01:03:24.617Z,-6.30
2023-02-05T01:05:51.493Z,-6.40
2023-02-05T01:08:18.590Z,-6.40
2023-02-05T01:10:48.283Z,-6.40
2023-02-05T01:13:27.713Z,-6.30
2023-02-05T01:15:54.758Z,-6.30
2023-02-05T01:18:21.788Z,-6.30
2023-02-05T01:20:48.927Z,-6.30
2023-02-05T01:23:17.107Z,-6.30
2023-02-05T01:25:45.041Z,-6.30
2023-02-05T01:28:11.975Z,-6.30
2023-02-05T01:30:39.121Z,-6.30
2023-02-05T01:33:06.272Z,-6.30
2023-02-05T01:35:33.699Z,-6.30
2023-02-05T01:38:02.074Z,-6.20
2023-02-05T01:40:29.174Z,-6.20
2023-02-05T01:42:57.403Z,-6.20
2023-02-05T01:45:26.920Z,-4.90
2023-02-05T01:48:05.662Z,-6.20
2023-02-05T01:50:38.629Z,-6.20
2023-02-05T01:53:18.357Z,-3.90
2023-02-05T01:55:59.049Z,-6.10
2023-02-05T01:58:30.532Z,-6.00
2023-02-05T02:00:57.714Z,-5.70
2023-02-05T02:03:28.029Z,-5.90
2023-02-05T02:05:55.996Z,-5.80
2023-02-05T02:08:23.069Z,-5.70
2023-02-05T02:10:52.598Z,-5.70
2023-02-05T02:13:22.221Z,-5.60
2023-02-05T02:15:50.958Z,-5.60
2023-02-05T02:18:26.153Z,-5.60
2023-02-05T02:21:07.385Z,-5.50
2023-02-05T02:23:46.790Z,-5.60
2023-02-05T02:26:46.723Z,-5.70
2023-02-05T02:29:19.998Z,-5.70
2023-02-05T02:31:59.910Z,-5.70
2023-02-05T02:34:52.411Z,-5.70
2023-02-05T02:37:25.982Z,-5.70
2023-02-05T02:40:05.919Z,-5.60
2023-02-05T02:43:10.251Z,-4.70
2023-02-05T02:45:46.336Z,-5.40
2023-02-05T02:48:17.891Z,-5.40
2023-02-05T02:50:49.567Z,-5.30
2023-02-05T02:53:26.718Z,-5.20
2023-02-05T02:55:56.440Z,-5.10
2023-02-05T02:58:33.080Z,-5.10
2023-02-05T03:01:03.630Z,-5.00
2023-02-05T03:03:32.921Z,-4.90
2023-02-05T03:06:27.018Z,-4.30
2023-02-05T03:09:38.369Z,-4.70
2023-02-05T03:12:07.275Z,-4.70
2023-02-05T03:14:34.538Z,-4.60
2023-02-05T03:17:01.704Z,-4.60
2023-02-05T03:19:29.601Z,-4.50
2023-02-05T03:22:02.871Z,-4.50
2023-02-05T03:24:38.885Z,-4.50
2023-02-05T03:27:07.013Z,-4.40
2023-02-05T03:29:39.107Z,-4.40
2023-02-05T03:32:27.511Z,-4.40
2023-02-05T03:35:03.689Z,-4.40
2023-02-05T03:38:04.384Z,-4.40
2023-02-05T03:40:55.650Z,-4.40
2023-02-05T03:43:31.682Z,-4.40
2023-02-05T03:46:30.506Z,-4.40
2023-02-05T03:49:23.192Z,-4.50
2023-02-05T03:51:53.402Z,-4.40
2023-02-05T03:54:49.385Z,-4.50
2023-02-05T03:57:30.469Z,-4.50
2023-02-05T03:59:59.875Z,-4.50
2023-02-05T04:02:30.295Z,-4.50
2023-02-05T04:04:57.489Z,-4.50
2023-02-05T04:07:27.681Z,-4.50
2023-02-05T04:09:54.714Z,-4.60
2023-02-05T04:12:21.632Z,-4.40
2023-02-05T04:14:48.887Z,-4.50
2023-02-05T04:17:15.918Z,-4.60
2023-02-05T04:19:43.071Z,-4.60
2023-02-05T04:22:10.201Z,-4.60
2023-02-05T04:24:43.080Z,-4.60
2023-02-05T04:27:10.027Z,-4.20
2023-02-05T04:29:39.060Z,-4.70
2023-02-05T04:32:07.170Z,-4.60
2023-02-05T04:37:03.891Z,-4.70
2023-02-05T04:39:32.019Z,-4.70
2023-02-05T04:42:05.077Z,-4.70
2023-02-05T04:44:32.198Z,-4.70
2023-02-05T04:47:02.458Z,-4.70
2023-02-05T04:49:31.643Z,-4.60
2023-02-05T04:51:58.771Z,-4.70
2023-02-05T04:54:28.421Z,-4.60
2023-02-05T04:56:55.518Z,-4.60
2023-02-05T04:59:24.606Z,-4.70
2023-02-05T05:02:00.604Z,-4.70
2023-02-05T05:04:27.652Z,-4.70
2023-02-05T05:06:58.774Z,-4.70
2023-02-05T05:09:26.656Z,-4.70
2023-02-05T05:11:56.492Z,-4.70
2023-02-05T05:14:24.684Z,-4.70
2023-02-05T05:16:52.666Z,-4.60
2023-02-05T05:19:25.733Z,-4.60
2023-02-05T05:21:52.828Z,-4.70
2023-02-05T05:24:20.977Z,-4.70
2023-02-05T05:26:48.129Z,-4.70
2023-02-05T05:29:15.467Z,-4.60
2023-02-05T05:31:42.931Z,-4.60
2023-02-05T05:34:10.166Z,-4.70
2023-02-05T05:36:40.035Z,-4.70
2023-02-05T05:39:26.149Z,-4.70
2023-02-05T05:42:11.582Z,-4.60
2023-02-05T05:44:40.490Z,-4.60
2023-02-05T05:47:07.392Z,-4.60
2023-02-05T05:49:34.550Z,-4.60
2023-02-05T05:52:08.377Z,-4.60
2023-02-05T05:54:35.394Z,-4.60
2023-02-05T05:57:02.484Z,-4.60
2023-02-05T05:59:30.904Z,-4.60
2023-02-05T06:01:57.931Z,-4.60
2023-02-05T06:04:24.870Z,-4.60
2023-02-05T06:06:51.843Z,-4.50
2023-02-05T06:09:21.854Z,-4.50
2023-02-05T06:11:49.275Z,-4.50
2023-02-05T06:14:16.699Z,-4.40
2023-02-05T06:16:43.895Z,-4.40
2023-02-05T06:19:11.953Z,-4.50
2023-02-05T06:21:44.657Z,-4.40
2023-02-05T06:24:12.694Z,-4.40
2023-02-05T06:26:39.735Z,-4.40
2023-02-05T06:29:08.000Z,-4.40
2023-02-05T06:31:40.960Z,-4.40
2023-02-05T06:34:10.225Z,-4.40
2023-02-05T06:36:37.098Z,-4.40
2023-02-05T06:39:04.252Z,-4.40
2023-02-05T06:41:31.246Z,-4.40
2023-02-05T06:44:00.306Z,-4.30
2023-02-05T06:46:29.285Z,-4.30
2023-02-05T06:48:57.345Z,-4.30
2023-02-05T06:51:24.374Z,-4.20
2023-02-05T06:53:57.316Z,-4.20
2023-02-05T06:56:24.867Z,-4.20
2023-02-05T06:58:54.870Z,-4.20
2023-02-05T07:01:26.980Z,-4.10
2023-02-05T07:03:56.306Z,-4.10
2023-02-05T07:06:26.293Z,-4.10
2023-02-05T07:08:54.670Z,-4.00
2023-02-05T07:11:23.292Z,-4.10
2023-02-05T07:13:50.135Z,-4.00
2023-02-05T07:16:18.320Z,-3.60
2023-02-05T07:18:46.690Z,-4.00
2023-02-05T07:21:17.224Z,-3.90
2023-02-05T07:23:45.565Z,-3.80
2023-02-05T07:26:16.062Z,-3.90
2023-02-05T07:28:43.973Z,-3.90
2023-02-05T07:31:17.374Z,-3.80
2023-02-05T07:33:48.304Z,-3.80
2023-02-05T07:36:17.712Z,-3.70
2023-02-05T07:38:46.303Z,-3.80
2023-02-05T07:41:15.531Z,-3.80
2023-02-05T07:43:43.024Z,-3.70
2023-02-05T07:46:15.356Z,-2.60
2023-02-05T07:48:42.558Z,-3.70
2023-02-05T07:51:19.252Z,-3.60
2023-02-05T07:53:46.733Z,-3.60
2023-02-05T07:56:16.290Z,-3.60
2023-02-05T07:58:43.648Z,-3.50
2023-02-05T08:01:11.658Z,-3.40
2023-02-05T08:03:39.111Z,-3.40
2023-02-05T08:06:08.235Z,-2.90
2023-02-05T08:08:35.111Z,-3.30
2023-02-05T08:11:03.919Z,-3.30
2023-02-05T08:13:31.024Z,-3.30
2023-02-05T08:15:58.234Z,-3.30
2023-02-05T08:18:25.192Z,-3.20
2023-02-05T08:20:53.492Z,-3.20
2023-02-05T08:23:21.477Z,-3.30
2023-02-05T08:25:48.590Z,-3.20
2023-02-05T08:28:15.603Z,-3.20
2023-02-05T08:30:42.813Z,-3.20
2023-02-05T08:33:09.895Z,-2.50
2023-02-05T08:35:37.892Z,-3.20
2023-02-05T08:38:05.017Z,-2.50
2023-02-05T08:40:33.129Z,-3.10
2023-02-05T08:43:02.254Z,-3.10
2023-02-05T08:45:29.961Z,-3.10
2023-02-05T08:47:57.310Z,-3.00
2023-02-05T08:50:24.692Z,-2.90
2023-02-05T08:52:51.757Z,-2.80
2023-02-05T08:55:18.779Z,-2.70
2023-02-05T08:57:46.228Z,-2.60
2023-02-05T09:00:15.300Z,-2.50
2023-02-05T09:02:43.646Z,-2.50
2023-02-05T09:05:11.017Z,-2.40
2023-02-05T09:07:41.955Z,-2.40
2023-02-05T09:10:12.619Z,-2.50
2023-02-05T09:12:40.369Z,-2.50
2023-02-05T09:15:08.452Z,-2.40
2023-02-05T09:17:35.680Z,-2.40
2023-02-05T09:20:02.843Z,-2.40
2023-02-05T09:22:29.832Z,-2.40
2023-02-05T09:24:57.065Z,-2.40
2023-02-05T09:27:23.918Z,-2.40
2023-02-05T09:29:50.722Z,-2.40
2023-02-05T09:32:17.550Z,-2.10
2023-02-05T09:34:44.368Z,-2.30
2023-02-05T09:37:11.199Z,-2.00
2023-02-05T09:42:47.872Z,-2.20
2023-02-05T09:45:38.335Z,-2.20
2023-02-05T09:48:29.722Z,-2.10
2023-02-05T09:50:58.348Z,-2.00
2023-02-05T09:53:32.556Z,-1.90
2023-02-05T09:56:00.628Z,-1.90
2023-02-05T09:58:31.907Z,-1.80
2023-02-05T10:01:06.577Z,-1.80
2023-02-05T10:03:47.189Z,-1.40
2023-02-05T10:06:24.754Z,-1.80
2023-02-05T10:09:10.202Z,-1.70
2023-02-05T10:11:37.280Z,-1.70
2023-02-05T10:14:29.685Z,-1.70
2023-02-05T10:17:21.321Z,-1.60
2023-02-05T10:19:57.245Z,-1.60
2023-02-05T10:22:56.413Z,-1.60
2023-02-05T10:25:45.718Z,-1.60
2023-02-05T10:28:37.322Z,-1.60
2023-02-05T10:31:04.652Z,-1.60
2023-02-05T10:33:46.820Z,-1.60
2023-02-05T10:36:14.591Z,-1.40
2023-02-05T10:38:46.317Z,-1.60
2023-02-05T10:41:35.516Z,-1.60
2023-02-05T10:44:24.710Z,-1.50
2023-02-05T10:46:59.181Z,-1.50
2023-02-05T10:49:35.152Z,-1.40
2023-02-05T10:52:02.121Z,-1.40
2023-02-05T10:54:32.657Z,-1.40
2023-02-05T10:57:01.250Z,-1.40
2023-02-05T10:59:35.770Z,-1.30
2023-02-05T11:02:09.658Z,-1.30
2023-02-05T11:05:01.169Z,-1.40
2023-02-05T11:07:38.462Z,-1.40
2023-02-05T11:10:19.161Z,-1.40
2023-02-05T11:12:52.241Z,-1.40
2023-02-05T11:15:28.010Z,-1.50
2023-02-05T11:18:03.112Z,-1.40
2023-02-05T11:20:31.533Z,-1.40
2023-02-05T11:23:07.256Z,-1.40
2023-02-05T11:25:34.544Z,-1.30
2023-02-05T11:28:05.677Z,-1.30
2023-02-05T11:30:52.326Z,-1.30
2023-02-05T11:33:22.449Z,-1.40
2023-02-05T11:35:56.517Z,-1.40
2023-02-05T11:38:39.849Z,-1.40
2023-02-05T11:41:08.469Z,-1.40
2023-02-05T11:43:45.211Z,-1.40
2023-02-05T11:46:18.193Z,-1.40
2023-02-05T11:49:20.974Z,-1.40
2023-02-05T11:51:51.764Z,-1.30
2023-02-05T11:54:35.495Z,-1.30
2023-02-05T11:57:22.101Z,-1.30
2023-02-05T12:00:01.014Z,-1.30
2023-02-05T12:02:32.225Z,-1.40
2023-02-05T12:05:17.063Z,-1.40
2023-02-05T12:07:52.790Z,-1.40
2023-02-05T12:10:26.484Z,-1.40
2023-02-05T12:13:11.457Z,-1.50
2023-02-05T12:16:06.501Z,-1.40
2023-02-05T12:18:39.515Z,-1.40
2023-02-05T12:21:15.348Z,-1.40
2023-02-05T12:24:12.000Z,-1.40
2023-02-05T12:26:44.868Z,-1.30
2023-02-05T12:29:42.782Z,-1.30
2023-02-05T12:32:45.211Z,-1.30
2023-02-05T12:35:56.984Z,-1.30
2023-02-05T12:38:44.098Z,-1.30
2023-02-05T12:41:25.665Z,-1.20
2023-02-05T12:44:08.478Z,-1.20
2023-02-05T12:47:09.010Z,-1.20
2023-02-05T12:49:47.224Z,-1.20
2023-02-05T12:52:25.183Z,-0.70
2023-02-05T12:55:12.379Z,-1.20
2023-02-05T12:57:47.144Z,-1.20
2023-02-05T13:00:19.727Z,-1.20
2023-02-05T13:03:08.524Z,-1.10
2023-02-05T13:05:41.310Z,-1.10
2023-02-05T13:08:08.396Z,-1.10
2023-02-05T13:10:56.366Z,-1.10
2023-02-05T13:13:33.178Z,-1.10
2023-02-05T13:16:11.451Z,-1.10
2023-02-05T13:18:46.099Z,-1.10
2023-02-05T13:21:36.956Z,-1.20
2023-02-05T13:24:34.524Z,-1.20
2023-02-05T13:27:20.619Z,-1.20
2023-02-05T13:29:51.684Z,-1.20
2023-02-05T13:32:23.657Z,-1.20
2023-02-05T13:34:54.824Z,-1.20
2023-02-05T13:37:42.970Z,-1.20
2023-02-05T13:40:12.800Z,-1.20
2023-02-05T13:42:42.368Z,-1.00
2023-02-05T13:45:37.470Z,-1.20
2023-02-05T13:48:34.804Z,-1.20
2023-02-05T13:51:22.050Z,-1.20
2023-02-05T13:54:11.131Z,-1.20
2023-02-05T13:56:45.307Z,-1.20
2023-02-05T13:59:23.610Z,-1.20
2023-02-05T14:01:58.241Z,-1.30
2023-02-05T14:04:28.470Z,-1.30
2023-02-05T14:07:05.377Z,-1.30
2023-02-05T14:09:42.485Z,-1.30
2023-02-05T14:12:12.271Z,-1.30
2023-02-05T14:14:41.501Z,-1.30
2023-02-05T14:17:33.334Z,-1.40
2023-02-05T14:20:01.402Z,-1.40
2023-02-05T14:22:44.004Z,-1.40
2023-02-05T14:25:36.744Z,-1.40
2023-02-05T14:28:15.867Z,-1.30
2023-02-05T14:30:53.122Z,-1.30
2023-02-05T14:33:43.443Z,-1.40
2023-02-05T14:36:22.859Z,-1.30
2023-02-05T14:38:53.983Z,-1.30
2023-02-05T14:41:25.338Z,-1.30
2023-02-05T14:44:15.961Z,-1.30
2023-02-05T14:46:54.359Z,-1.40
2023-02-05T14:49:28.807Z,-1.40
2023-02-05T14:52:04.604Z,-1.50
2023-02-05T14:54:33.187Z,-1.50
2023-02-05T14:57:15.084Z,-1.50
2023-02-05T14:59:58.556Z,-1.60
2023-02-05T15:02:48.425Z,-1.70
2023-02-05T15:05:27.608Z,-0.90
2023-02-05T15:08:13.147Z,-1.80
2023-02-05T15:10:48.626Z,-1.80
2023-02-05T15:13:18.529Z,-1.80
2023-02-05T15:16:14.805Z,-1.80
2023-02-05T15:18:59.309Z,-1.80
2023-02-05T15:21:39.776Z,-1.90
2023-02-05T15:24:13.494Z,-1.90
2023-02-05T15:26:59.298Z,-2.00
2023-02-05T15:29:30.517Z,-1.90
2023-02-05T15:32:32.658Z,-2.00
2023-02-05T15:35:06.173Z,-2.00
2023-02-05T15:37:41.857Z,-2.00
2023-02-05T15:40:30.585Z,-2.00
2023-02-05T15:43:18.136Z,-2.00
2023-02-05T15:45:45.917Z,-2.00
2023-02-05T15:48:17.234Z,-2.10
2023-02-05T15:51:00.192Z,-2.10
2023-02-05T15:53:49.408Z,-2.10
2023-02-05T15:56:48.595Z,-2.10
2023-02-05T15:59:28.830Z,-2.10
2023-02-05T16:02:18.753Z,-2.10
2023-02-05T16:04:53.283Z,-2.10
2023-02-05T16:07:35.479Z,-2.10
2023-02-05T16:10:14.751Z,-2.20
2023-02-05T16:12:59.889Z,-2.20
2023-02-05T16:15:56.756Z,-2.30
2023-02-05T16:18:53.650Z,-2.30
2023-02-05T16:21:24.853Z,-2.30
2023-02-05T16:23:57.821Z,-2.30
2023-02-05T16:26:36.695Z,-2.40
2023-02-05T16:29:11.739Z,-2.40
2023-02-05T16:31:47.447Z,-2.40
2023-02-05T16:34:21.653Z,-2.40
2023-02-05T16:36:50.389Z,-2.40
2023-02-05T16:39:29.847Z,-2.50
2023-02-05T16:42:09.406Z,-2.50
2023-02-05T16:44:39.131Z,-2.20
2023-02-05T16:47:14.129Z,-2.50
2023-02-05T16:49:42.858Z,-2.50
2023-02-05T16:52:30.788Z,-2.50
2023-02-05T16:54:59.696Z,-2.50
2023-02-05T16:57:34.979Z,-2.50
2023-02-05T17:00:19.634Z,-2.60
2023-02-05T17:02:46.791Z,-2.60
2023-02-05T17:05:30.921Z,-2.60
2023-02-05T17:08:00.747Z,-2.60
2023-02-05T17:10:28.951Z,-2.60
2023-02-05T17:13:01.737Z,-2.60
2023-02-05T17:15:33.770Z,-2.70
2023-02-05T17:18:17.746Z,-2.70
2023-02-05T17:20:47.445Z,-2.70
2023-02-05T17:23:15.923Z,-2.40
2023-02-05T17:25:55.338Z,-2.80
2023-02-05T17:28:27.474Z,-2.80
2023-02-05T17:30:57.816Z,-2.80
2023-02-05T17:33:27.038Z,-2.90
2023-02-05T17:35:53.861Z,-2.90
2023-02-05T17:38:21.092Z,-2.90
2023-02-05T17:40:47.918Z,-3.00
2023-02-05T17:43:14.760Z,-3.00
2023-02-05T17:45:44.296Z,-3.00
2023-02-05T17:48:11.623Z,-3.00
2023-02-05T17:50:38.821Z,-3.00
2023-02-05T17:53:05.905Z,-3.00
2023-02-05T17:55:32.952Z,-3.00
2023-02-05T17:57:59.769Z,-3.00
2023-02-05T18:00:28.671Z,-3.10
2023-02-05T18:02:55.499Z,-3.00
2023-02-05T18:05:22.894Z,-3.00
2023-02-05T18:07:56.536Z,-3.00
2023-02-05T18:10:29.090Z,-3.00
2023-02-05T18:12:56.286Z,-3.00
2023-02-05T18:15:23.979Z,-3.00
2023-02-05T18:17:51.428Z,-3.00
2023-02-05T18:20:22.142Z,-2.90
2023-02-05T18:22:49.457Z,-2.90
2023-02-05T18:25:16.699Z,-3.00
2023-02-05T18:27:43.679Z,-2.90
2023-02-05T18:30:11.210Z,-2.20
2023-02-05T18:32:38.140Z,-2.90
2023-02-05T18:35:05.205Z,-2.90
2023-02-05T18:37:32.226Z,-2.90
2023-02-05T18:39:59.068Z,-2.90
2023-02-05T18:42:27.024Z,-2.90
2023-02-05T18:44:53.881Z,-2.90
2023-02-05T18:47:20.956Z,-2.90
2023-02-05T18:49:47.752Z,-2.90
2023-02-05T18:52:14.661Z,-3.00
2023-02-05T18:54:41.632Z,-2.90
2023-02-05T18:57:08.475Z,-2.90
2023-02-05T18:59:36.870Z,-2.90
2023-02-05T19:02:03.789Z,-2.90
2023-02-05T19:04:33.076Z,-2.90
2023-02-05T19:07:00.188Z,-2.90
2023-02-05T19:09:28.046Z,-2.90
2023-02-05T19:11:55.650Z,-2.90
2023-02-05T19:14:24.370Z,-2.90
2023-02-05T19:16:52.431Z,-2.90
2023-02-05T19:19:23.605Z,-2.90
2023-02-05T19:21:55.804Z,-2.90
2023-02-05T19:24:22.681Z,-3.00
2023-02-05T19:26:50.907Z,-3.00
2023-02-05T19:29:20.111Z,-3.00
2023-02-05T19:31:47.928Z,-3.10
2023-02-05T19:34:15.882Z,-3.10
2023-02-05T19:36:43.143Z,-3.20
2023-02-05T19:39:14.065Z,-3.20
2023-02-05T19:41:45.599Z,-3.30
2023-02-05T19:44:12.818Z,-3.30
2023-02-05T19:46:44.141Z,-3.40
2023-02-05T19:49:18.220Z,-3.40
2023-02-05T19:51:47.137Z,-3.50
2023-02-05T19:54:15.046Z,-3.60
2023-02-05T19:56:43.156Z,-3.70
2023-02-05T19:59:10.583Z,-3.70
2023-02-05T20:01:39.372Z,-3.70
2023-02-05T20:04:09.548Z,-3.80
2023-02-05T20:06:37.333Z,-3.80
2023-02-05T20:09:10.376Z,-3.80
2023-02-05T20:11:42.696Z,-3.80
2023-02-05T20:14:10.820Z,-3.90
2023-02-05T20:16:42.302Z,-3.90
2023-02-05T20:19:12.748Z,-3.90
2023-02-05T20:21:40.078Z,-4.00
2023-02-05T20:24:08.266Z,-4.00
2023-02-05T20:26:36.545Z,-4.10
2023-02-05T20:29:22.553Z,-4.00
2023-02-05T20:31:51.948Z,-4.00
2023-02-05T20:34:26.144Z,-4.10
2023-02-05T20:36:56.277Z,-4.20
2023-02-05T20:39:24.657Z,-4.20
2023-02-05T20:41:52.398Z,-4.20
2023-02-05T20:44:19.440Z,-4.30
2023-02-05T20:46:46.348Z,-4.30
2023-02-05T20:49:13.449Z,-4.30
2023-02-05T20:51:43.424Z,-4.30
2023-02-05T20:54:11.119Z,-4.30
2023-02-05T20:56:38.013Z,-4.40
2023-02-05T20:59:07.219Z,-4.30
2023-02-05T21:01:36.487Z,-4.30
2023-02-05T21:04:04.643Z,-4.30
2023-02-05T21:06:37.750Z,-4.30
2023-02-05T21:09:06.372Z,-4.40
2023-02-05T21:11:34.332Z,-4.40
2023-02-05T21:14:03.386Z,-4.40
2023-02-05T21:16:30.836Z,-4.40
2023-02-05T21:18:57.704Z,-4.40
2023-02-05T21:21:27.281Z,-4.40
2023-02-05T21:24:08.587Z,-4.40
2023-02-05T21:26:40.363Z,-4.50
2023-02-05T21:29:10.272Z,-4.50
2023-02-05T21:31:44.803Z,-4.50
2023-02-05T21:34:15.319Z,-4.50
2023-02-05T21:36:42.163Z,-4.50
2023-02-05T21:39:12.032Z,-4.60
2023-02-05T21:41:39.510Z,-4.60
2023-02-05T21:44:06.394Z,-3.90
2023-02-05T21:46:33.515Z,-4.60
2023-02-05T21:49:01.003Z,-4.70
2023-02-05T21:51:34.676Z,-4.70
2023-02-05T21:54:04.147Z,-4.70
2023-02-05T21:56:34.426Z,-4.80
2023-02-05T21:59:01.403Z,-4.80
2023-02-05T22:01:30.896Z,-4.80
2023-02-05T22:04:00.369Z,-4.90
2023-02-05T22:06:29.590Z,-4.90
2023-02-05T22:08:57.809Z,-5.00
2023-02-05T22:11:25.645Z,-5.00
2023-02-05T22:13:54.031Z,-5.00
2023-02-05T22:16:24.365Z,-5.00
2023-02-05T22:18:52.793Z,-5.10
2023-02-05T22:21:21.303Z,-5.10
2023-02-05T22:23:50.835Z,-5.30
2023-02-05T22:26:19.910Z,-5.20
2023-02-05T22:28:48.709Z,-5.20
2023-02-05T22:31:18.188Z,-5.20
2023-02-05T22:33:46.935Z,-5.20
2023-02-05T22:36:15.894Z,-5.20
2023-02-05T22:38:43.725Z,-5.30
2023-02-05T22:41:19.764Z,-5.30
2023-02-05T22:43:46.917Z,-5.30
2023-02-05T22:46:16.776Z,-5.40
2023-02-05T22:48:46.182Z,-5.40
2023-02-05T22:51:19.060Z,-5.40
2023-02-05T22:53:46.457Z,-5.40
2023-02-05T22:56:14.086Z,-5.40
2023-02-05T22:58:45.344Z,-5.40
2023-02-05T23:01:17.717Z,-5.40
2023-02-05T23:03:49.364Z,-5.50
2023-02-05T23:06:21.199Z,-5.50
2023-02-05T23:08:55.234Z,-5.50
2023-02-05T23:11:22.534Z,-5.50
2023-02-05T23:13:50.965Z,-5.50
2023-02-05T23:16:24.012Z,-5.50
2023-02-05T23:18:52.506Z,-5.50
2023-02-05T23:21:22.592Z,-5.50
2023-02-05T23:23:50.356Z,-5.50
2023-02-05T23:26:21.254Z,-5.50
2023-02-05T23:28:50.427Z,-5.50
2023-02-05T23:31:20.065Z,-5.40
2023-02-05T23:33:49.264Z,-5.50
2023-02-05T23:36:16.211Z,-5.50
2023-02-05T23:38:49.311Z,-5.50
2023-02-05T23:41:36.391Z,-5.40
2023-02-05T23:44:11.519Z,-5.40
2023-02-05T23:46:39.982Z,-5.40
2023-02-05T23:49:08.037Z,-5.40
2023-02-05T23:51:35.707Z,-5.40
2023-02-05T23:54:03.747Z,-5.40
2023-02-05T23:56:31.188Z,-5.50
2023-02-05T23:59:00.524Z,-5.50
